createdAt,value
2022-09-26T00:01:59.138Z,7.27
2022-09-26T00:04:32.744Z,11.47
2022-09-26T00:07:01.518Z,4.78
2022-09-26T00:09:31.252Z,4.47
2022-09-26T00:12:01.902Z,6.53
2022-09-26T00:14:31.961Z,4.87
2022-09-26T00:17:01.766Z,8.77
2022-09-26T00:19:31.528Z,7.57
2022-09-26T00:22:01.304Z,6.20
2022-09-26T00:24:31.392Z,6.57
2022-09-26T00:27:01.114Z,7.17
2022-09-26T00:29:30.874Z,8.90
2022-09-26T00:32:00.977Z,7.87
2022-09-26T00:34:30.707Z,4.30
2022-09-26T00:37:01.188Z,10.03
2022-09-26T00:39:30.920Z,7.10
2022-09-26T00:42:02.376Z,8.37
2022-09-26T00:44:46.823Z,6.20
2022-09-26T00:47:37.189Z,5.65
2022-09-26T00:50:12.806Z,9.97
2022-09-26T00:52:45.585Z,4.87
2022-09-26T00:55:18.624Z,4.90
2022-09-26T00:57:53.159Z,6.30
2022-09-26T01:00:23.921Z,3.93
2022-09-26T01:02:55.272Z,7.93
2022-09-26T01:05:25.561Z,8.45
2022-09-26T01:07:57.118Z,6.37
2022-09-26T01:10:30.066Z,6.63
2022-09-26T01:13:02.111Z,6.57
2022-09-26T01:15:32.036Z,4.23
2022-09-26T01:18:02.204Z,8.70
2022-09-26T01:20:49.520Z,7.43
2022-09-26T01:23:43.037Z,6.12
2022-09-26T01:26:43.727Z,7.90
2022-09-26T01:29:48.903Z,5.25
2022-09-26T01:32:51.765Z,4.95
2022-09-26T01:35:27.274Z,8.45
2022-09-26T01:38:00.048Z,8.10
2022-09-26T01:40:36.207Z,6.80
2022-09-26T01:43:19.339Z,9.20
2022-09-26T01:45:57.868Z,9.87
2022-09-26T01:48:42.578Z,13.83
2022-09-26T01:51:18.244Z,12.27
2022-09-26T01:53:52.060Z,8.53
2022-09-26T01:56:26.860Z,7.17
2022-09-26T01:59:02.497Z,8.93
2022-09-26T02:01:35.083Z,6.43
2022-09-26T02:04:16.043Z,8.00
2022-09-26T02:06:51.819Z,7.53
2022-09-26T02:09:27.632Z,8.95
2022-09-26T02:12:01.064Z,5.85
2022-09-26T02:14:34.170Z,9.97
2022-09-26T02:17:15.927Z,5.47
2022-09-26T02:20:03.523Z,8.87
2022-09-26T02:22:35.686Z,8.20
2022-09-26T02:25:08.451Z,5.23
2022-09-26T02:27:40.061Z,6.83
2022-09-26T02:30:12.106Z,9.10
2022-09-26T02:32:41.867Z,6.67
2022-09-26T02:35:29.620Z,13.45
2022-09-26T02:37:59.535Z,7.10
2022-09-26T02:40:36.702Z,7.33
2022-09-26T02:43:42.467Z,5.47
2022-09-26T02:46:31.570Z,4.23
2022-09-26T02:49:24.053Z,5.03
2022-09-26T02:51:59.719Z,9.07
2022-09-26T02:54:47.255Z,5.80
2022-09-26T02:57:21.664Z,3.83
2022-09-26T02:59:57.663Z,5.50
2022-09-26T03:02:45.522Z,7.90
2022-09-26T03:05:24.810Z,5.80
2022-09-26T03:08:00.813Z,6.58
2022-09-26T03:10:32.758Z,6.67
2022-09-26T03:13:11.251Z,6.83
2022-09-26T03:15:45.181Z,9.73
2022-09-26T03:18:24.147Z,3.83
2022-09-26T03:20:54.157Z,4.70
2022-09-26T03:23:26.194Z,7.03
2022-09-26T03:26:02.390Z,5.00
2022-09-26T03:28:37.639Z,4.25
2022-09-26T03:31:05.066Z,5.53
2022-09-26T03:33:36.511Z,10.57
2022-09-26T03:36:09.447Z,6.17
2022-09-26T03:38:39.495Z,5.27
2022-09-26T03:41:11.392Z,11.07
2022-09-26T03:43:54.595Z,5.87
2022-09-26T03:46:25.397Z,5.87
2022-09-26T03:48:55.133Z,8.77
2022-09-26T03:51:24.897Z,11.03
2022-09-26T03:53:54.712Z,4.63
2022-09-26T03:56:26.941Z,6.83
2022-09-26T03:58:56.674Z,4.23
2022-09-26T04:01:27.199Z,5.45
2022-09-26T04:04:01.052Z,4.53
2022-09-26T04:06:30.798Z,5.60
2022-09-26T04:09:01.665Z,6.13
2022-09-26T04:11:31.464Z,7.40
2022-09-26T04:14:01.804Z,6.33
2022-09-26T04:16:33.305Z,4.10
2022-09-26T04:19:07.548Z,4.28
2022-09-26T04:21:38.888Z,7.43
2022-09-26T04:24:16.199Z,6.35
2022-09-26T04:26:45.989Z,2.50
2022-09-26T04:29:16.074Z,7.00
2022-09-26T04:31:53.279Z,4.15
2022-09-26T04:34:27.538Z,5.65
2022-09-26T04:36:58.459Z,3.90
2022-09-26T04:39:28.552Z,7.17
2022-09-26T04:41:58.451Z,5.97
2022-09-26T04:44:27.910Z,7.73
2022-09-26T04:46:57.706Z,6.07
2022-09-26T04:49:29.712Z,3.97
2022-09-26T04:51:59.424Z,3.83
2022-09-26T04:54:29.163Z,7.17
2022-09-26T04:57:01.127Z,10.43
2022-09-26T04:59:30.858Z,5.87
2022-09-26T05:02:03.572Z,4.87
2022-09-26T05:04:35.906Z,7.33
2022-09-26T05:07:05.972Z,7.80
2022-09-26T05:09:36.445Z,8.17
2022-09-26T05:12:09.657Z,8.03
2022-09-26T05:14:40.794Z,5.47
2022-09-26T05:17:11.600Z,3.77
2022-09-26T05:19:42.972Z,8.37
2022-09-26T05:22:14.439Z,6.75
2022-09-26T05:25:02.273Z,9.25
2022-09-26T05:27:32.069Z,6.60
2022-09-26T05:30:01.874Z,6.73
2022-09-26T05:32:31.686Z,5.87
2022-09-26T05:35:03.409Z,6.50
2022-09-26T05:37:33.776Z,10.80
2022-09-26T05:40:23.557Z,9.12
2022-09-26T05:42:55.392Z,13.20
2022-09-26T05:45:25.146Z,10.13
2022-09-26T05:47:55.051Z,6.43
2022-09-26T05:50:25.147Z,7.40
2022-09-26T05:53:00.787Z,6.07
2022-09-26T05:55:31.334Z,8.37
2022-09-26T05:58:18.913Z,8.13
2022-09-26T06:00:57.963Z,5.70
2022-09-26T06:03:29.429Z,5.73
2022-09-26T06:06:03.868Z,6.47
2022-09-26T06:08:36.541Z,7.20
2022-09-26T06:11:25.936Z,5.07
2022-09-26T06:13:55.910Z,8.03
2022-09-26T06:16:26.075Z,8.47
2022-09-26T06:18:58.578Z,7.73
2022-09-26T06:21:28.330Z,8.13
2022-09-26T06:23:59.793Z,6.17
2022-09-26T06:26:31.713Z,7.30
2022-09-26T06:29:01.603Z,4.33
2022-09-26T06:31:33.147Z,6.53
2022-09-26T06:34:16.352Z,6.17
2022-09-26T06:36:47.827Z,7.67
2022-09-26T06:39:17.836Z,8.53
2022-09-26T06:41:49.330Z,10.60
2022-09-26T06:44:36.951Z,7.10
2022-09-26T06:47:24.195Z,9.05
2022-09-26T06:49:55.625Z,7.50
2022-09-26T06:52:27.279Z,7.70
2022-09-26T06:54:57.513Z,7.73
2022-09-26T06:57:27.721Z,8.83
2022-09-26T06:59:57.617Z,8.77
2022-09-26T07:02:29.160Z,9.40
2022-09-26T07:05:08.689Z,8.13
2022-09-26T07:07:45.087Z,7.50
2022-09-26T07:10:20.347Z,5.70
2022-09-26T07:13:07.850Z,6.65
2022-09-26T07:15:38.088Z,7.13
2022-09-26T07:18:28.175Z,7.55
2022-09-26T07:21:09.206Z,5.27
2022-09-26T07:23:46.100Z,11.30
2022-09-26T07:26:16.274Z,5.83
2022-09-26T07:28:49.612Z,13.57
2022-09-26T07:31:17.621Z,8.10
2022-09-26T07:33:52.759Z,8.30
2022-09-26T07:36:22.435Z,4.37
2022-09-26T07:38:53.971Z,5.63
2022-09-26T07:41:23.975Z,5.03
2022-09-26T07:44:46.167Z,5.77
2022-09-26T07:46:43.176Z,7.62
2022-09-26T07:49:31.049Z,9.90
2022-09-26T07:52:20.561Z,6.78
2022-09-26T07:54:52.021Z,6.40
2022-09-26T07:57:41.609Z,5.07
2022-09-26T08:00:21.316Z,6.87
2022-09-26T08:03:05.121Z,4.47
2022-09-26T08:05:37.180Z,11.53
2022-09-26T08:08:08.013Z,7.23
2022-09-26T08:11:01.565Z,8.10
2022-09-26T08:13:36.551Z,5.97
2022-09-26T08:16:09.965Z,5.83
2022-09-26T08:18:41.502Z,4.13
2022-09-26T08:21:11.425Z,6.63
2022-09-26T08:23:41.571Z,5.63
2022-09-26T08:26:24.614Z,8.37
2022-09-26T08:28:56.071Z,4.40
2022-09-26T08:31:26.821Z,4.00
2022-09-26T08:33:58.102Z,4.77
2022-09-26T08:36:27.890Z,3.93
2022-09-26T08:39:14.092Z,4.40
2022-09-26T08:42:07.224Z,3.80
2022-09-26T08:44:57.691Z,4.47
2022-09-26T08:47:36.329Z,4.50
2022-09-26T08:50:37.552Z,3.77
2022-09-26T08:53:19.114Z,5.93
2022-09-26T08:55:53.569Z,6.93
2022-09-26T08:58:33.031Z,3.02
2022-09-26T09:01:05.497Z,6.07
2022-09-26T09:03:48.630Z,6.60
2022-09-26T09:06:19.437Z,6.87
2022-09-26T09:08:52.083Z,3.60
2022-09-26T09:11:47.015Z,5.53
2022-09-26T09:14:25.005Z,8.20
2022-09-26T09:17:05.125Z,5.10
2022-09-26T09:19:46.838Z,6.10
2022-09-26T09:22:29.603Z,4.30
2022-09-26T09:25:25.678Z,9.38
2022-09-26T09:28:08.361Z,6.30
2022-09-26T09:30:40.058Z,4.33
2022-09-26T09:33:28.785Z,5.95
2022-09-26T09:38:50.362Z,4.70
2022-09-26T09:41:28.253Z,5.70
2022-09-26T09:44:03.884Z,4.80
2022-09-26T09:46:37.208Z,5.83
2022-09-26T09:49:12.352Z,9.15
2022-09-26T09:51:59.389Z,6.73
2022-09-26T09:54:51.731Z,9.28
2022-09-26T09:57:36.534Z,8.53
2022-09-26T10:00:17.484Z,6.05
2022-09-26T10:02:59.213Z,9.27
2022-09-26T10:05:47.020Z,6.40
2022-09-26T10:08:36.567Z,7.47
2022-09-26T10:11:26.041Z,6.73
2022-09-26T10:14:09.277Z,8.67
2022-09-26T10:17:11.931Z,5.80
2022-09-26T10:19:55.191Z,3.70
2022-09-26T10:22:41.319Z,8.73
2022-09-26T10:25:21.339Z,10.17
2022-09-26T10:27:55.038Z,8.23
2022-09-26T10:30:28.369Z,16.13
2022-09-26T10:33:01.725Z,8.27
2022-09-26T10:35:44.223Z,9.00
2022-09-26T10:38:29.073Z,11.60
2022-09-26T10:41:03.552Z,9.77
2022-09-26T10:43:37.878Z,6.50
2022-09-26T10:46:20.677Z,5.33
2022-09-26T10:49:07.232Z,9.20
2022-09-26T10:52:11.694Z,5.63
2022-09-26T10:54:44.393Z,10.00
2022-09-26T10:57:23.145Z,7.60
2022-09-26T10:59:54.937Z,6.53
2022-09-26T11:02:27.404Z,9.13
2022-09-26T11:05:18.116Z,5.40
2022-09-26T11:08:10.111Z,9.80
2022-09-26T11:18:41.821Z,8.95
2022-09-26T11:21:29.310Z,7.35
2022-09-26T11:24:02.098Z,7.78
2022-09-26T11:26:57.130Z,10.30
2022-09-26T11:30:00.406Z,7.27
2022-09-26T11:32:40.025Z,7.07
2022-09-26T11:35:30.190Z,9.35
2022-09-26T11:38:05.868Z,7.03
2022-09-26T11:40:53.498Z,7.33
2022-09-26T11:43:29.278Z,6.25
2022-09-26T11:46:23.105Z,5.13
2022-09-26T11:49:08.191Z,7.65
2022-09-26T11:51:52.321Z,7.45
2022-09-26T11:54:48.523Z,5.87
2022-09-26T11:57:42.367Z,6.53
2022-09-26T12:00:27.390Z,8.70
2022-09-26T12:03:09.573Z,7.05
2022-09-26T12:05:52.148Z,8.45
2022-09-26T12:08:29.271Z,9.45
2022-09-26T12:11:19.698Z,5.17
2022-09-26T12:14:01.268Z,6.97
2022-09-26T12:16:36.781Z,5.97
2022-09-26T12:19:26.082Z,9.70
2022-09-26T12:22:19.386Z,4.55
2022-09-26T12:25:20.294Z,6.03
2022-09-26T12:28:20.114Z,12.20
2022-09-26T12:31:01.944Z,4.87
2022-09-26T12:33:40.507Z,5.27
2022-09-26T12:36:37.439Z,4.30
2022-09-26T12:39:26.216Z,5.05
2022-09-26T12:42:13.695Z,3.50
2022-09-26T12:44:49.024Z,3.13
2022-09-26T12:47:33.423Z,3.47
2022-09-26T12:50:14.666Z,3.47
2022-09-26T12:53:17.208Z,4.03
2022-09-26T12:56:09.277Z,5.87
2022-09-26T12:58:44.594Z,4.27
2022-09-26T13:01:17.433Z,4.50
2022-09-26T13:04:08.069Z,3.67
2022-09-26T13:07:17.679Z,5.20
2022-09-26T13:09:33.236Z,7.40
2022-09-26T13:12:16.668Z,4.27
2022-09-26T13:15:10.084Z,3.93
2022-09-26T13:17:44.756Z,3.80
2022-09-26T13:20:19.054Z,3.70
2022-09-26T13:22:58.195Z,5.00
2022-09-26T13:25:49.722Z,2.43
2022-09-26T13:28:21.378Z,4.33
2022-09-26T13:30:54.159Z,3.60
2022-09-26T13:33:35.717Z,3.50
2022-09-26T13:36:09.687Z,6.00
2022-09-26T13:38:58.734Z,4.27
2022-09-26T13:41:40.462Z,2.42
2022-09-26T13:44:28.101Z,3.22
2022-09-26T13:47:15.465Z,3.17
2022-09-26T13:50:24.132Z,3.90
2022-09-26T13:53:04.055Z,3.65
2022-09-26T13:55:35.797Z,3.37
2022-09-26T13:58:22.119Z,4.40
2022-09-26T14:00:54.673Z,2.50
2022-09-26T14:03:28.200Z,5.80
2022-09-26T14:06:06.598Z,5.47
2022-09-26T14:08:54.932Z,2.80
2022-09-26T14:11:49.744Z,4.27
2022-09-26T14:14:22.249Z,4.50
2022-09-26T14:16:54.827Z,2.57
2022-09-26T14:19:39.374Z,4.57
2022-09-26T14:22:26.405Z,5.78
2022-09-26T14:24:57.455Z,2.80
2022-09-26T14:27:40.750Z,2.73
2022-09-26T14:30:30.261Z,2.47
2022-09-26T14:33:03.368Z,2.43
2022-09-26T14:35:38.627Z,1.77
2022-09-26T14:38:15.283Z,1.90
2022-09-26T14:41:00.790Z,1.97
2022-09-26T14:43:31.909Z,1.93
2022-09-26T14:46:05.163Z,2.33
2022-09-26T14:48:40.120Z,3.73
2022-09-26T14:51:16.086Z,1.80
2022-09-26T14:53:51.827Z,2.58
2022-09-26T14:56:29.924Z,2.20
2022-09-26T14:59:18.965Z,2.60
2022-09-26T15:01:48.603Z,2.40
2022-09-26T15:04:24.504Z,1.85
2022-09-26T15:07:05.980Z,2.30
2022-09-26T15:09:44.716Z,2.23
2022-09-26T15:12:20.012Z,3.37
2022-09-26T15:15:03.965Z,2.33
2022-09-26T15:17:32.734Z,2.33
2022-09-26T15:20:05.850Z,2.33
2022-09-26T15:22:35.973Z,2.67
2022-09-26T15:25:12.270Z,2.20
2022-09-26T15:27:46.215Z,2.17
2022-09-26T15:30:22.499Z,2.80
2022-09-26T15:32:57.656Z,2.73
2022-09-26T15:35:28.091Z,2.10
2022-09-26T15:38:03.662Z,2.05
2022-09-26T15:40:33.556Z,2.10
2022-09-26T15:43:15.885Z,2.35
2022-09-26T15:45:53.207Z,1.83
2022-09-26T15:48:25.835Z,1.60
2022-09-26T15:50:59.221Z,1.47
2022-09-26T15:53:41.077Z,4.20
2022-09-26T15:56:16.955Z,4.15
2022-09-26T15:58:52.390Z,1.93
2022-09-26T16:01:25.533Z,1.40
2022-09-26T16:04:22.403Z,1.70
2022-09-26T16:07:07.036Z,1.62
2022-09-26T16:09:43.224Z,1.30
2022-09-26T16:12:22.362Z,2.67
2022-09-26T16:14:55.153Z,1.50
2022-09-26T16:17:32.346Z,1.63
2022-09-26T16:20:07.580Z,2.70
2022-09-26T16:22:46.046Z,1.82
2022-09-26T16:25:22.819Z,2.00
2022-09-26T16:28:03.212Z,2.42
2022-09-26T16:30:36.033Z,3.10
2022-09-26T16:33:11.762Z,1.80
2022-09-26T16:35:48.837Z,2.23
2022-09-26T16:38:37.594Z,2.15
2022-09-26T16:41:10.504Z,2.10
2022-09-26T16:43:41.291Z,2.33
2022-09-26T16:46:18.231Z,2.54
2022-09-26T16:48:55.532Z,3.12
2022-09-26T16:51:28.207Z,4.93
2022-09-26T16:54:14.414Z,2.67
2022-09-26T16:56:45.389Z,3.33
2022-09-26T16:59:23.589Z,3.40
2022-09-26T17:01:58.773Z,3.43
2022-09-26T17:04:34.399Z,5.73
2022-09-26T17:07:09.690Z,5.30
2022-09-26T17:09:40.531Z,5.28
2022-09-26T17:12:20.325Z,4.20
2022-09-26T17:14:52.358Z,10.40
2022-09-26T17:17:25.609Z,8.83
2022-09-26T17:19:59.330Z,8.68
2022-09-26T17:22:27.539Z,6.65
2022-09-26T17:24:57.406Z,9.73
2022-09-26T17:27:30.490Z,11.17
2022-09-26T17:30:02.373Z,11.93
2022-09-26T17:32:40.289Z,9.80
2022-09-26T17:35:18.375Z,10.33
2022-09-26T17:37:48.175Z,8.30
2022-09-26T17:40:21.914Z,10.72
2022-09-26T17:42:55.558Z,16.93
2022-09-26T17:45:40.687Z,11.03
2022-09-26T17:48:31.317Z,15.56
2022-09-26T17:51:04.247Z,12.60
2022-09-26T17:53:39.210Z,16.10
2022-09-26T17:56:12.643Z,14.23
2022-09-26T17:58:45.388Z,18.02
2022-09-26T18:01:27.351Z,12.60
2022-09-26T18:04:00.798Z,16.83
2022-09-26T18:06:32.932Z,17.73
2022-09-26T18:09:08.703Z,17.30
2022-09-26T18:11:38.898Z,16.33
2022-09-26T18:14:14.910Z,18.60
2022-09-26T18:16:46.398Z,20.37
2022-09-26T18:19:16.614Z,16.93
2022-09-26T18:21:46.634Z,16.57
2022-09-26T18:24:19.981Z,14.97
2022-09-26T18:26:51.446Z,14.73
2022-09-26T18:29:33.056Z,13.17
2022-09-26T18:32:04.883Z,14.97
2022-09-26T18:34:34.914Z,15.88
2022-09-26T18:37:05.194Z,21.67
2022-09-26T18:39:35.672Z,22.20
2022-09-26T18:42:11.860Z,13.85
2022-09-26T18:44:42.428Z,23.30
2022-09-26T18:47:17.253Z,20.30
2022-09-26T18:49:47.801Z,17.83
2022-09-26T18:52:19.294Z,16.00
2022-09-26T18:54:50.662Z,20.17
2022-09-26T18:57:38.732Z,14.65
2022-09-26T19:00:10.490Z,19.80
2022-09-26T19:02:40.567Z,19.60
2022-09-26T19:05:13.086Z,20.70
2022-09-26T19:07:44.765Z,17.90
2022-09-26T19:10:17.405Z,23.62
2022-09-26T19:12:48.200Z,20.47
2022-09-26T19:15:18.305Z,22.87
2022-09-26T19:17:49.896Z,17.50
2022-09-26T19:20:19.870Z,18.37
2022-09-26T19:22:50.470Z,21.50
2022-09-26T19:25:20.623Z,21.62
2022-09-26T19:27:54.900Z,19.93
2022-09-26T19:30:24.742Z,16.97
2022-09-26T19:32:57.024Z,21.60
2022-09-26T19:35:39.121Z,21.30
2022-09-26T19:38:22.271Z,17.25
2022-09-26T19:40:53.623Z,17.90
2022-09-26T19:43:24.094Z,19.65
2022-09-26T19:45:55.219Z,18.07
2022-09-26T19:48:25.430Z,18.10
2022-09-26T19:50:55.836Z,15.23
2022-09-26T19:53:25.571Z,14.03
2022-09-26T19:55:55.777Z,9.05
2022-09-26T19:58:29.269Z,13.43
2022-09-26T20:01:03.687Z,19.05
2022-09-26T20:03:42.656Z,10.30
2022-09-26T20:06:26.101Z,13.50
2022-09-26T20:09:01.475Z,14.07
2022-09-26T20:11:29.197Z,12.07
2022-09-26T20:14:16.892Z,13.03
2022-09-26T20:16:46.738Z,16.87
2022-09-26T20:19:19.419Z,13.23
2022-09-26T20:21:49.627Z,9.60
2022-09-26T20:24:19.698Z,13.10
2022-09-26T20:26:49.579Z,17.50
2022-09-26T20:29:19.621Z,7.90
2022-09-26T20:31:49.436Z,12.10
2022-09-26T20:34:19.331Z,14.97
2022-09-26T20:36:51.373Z,8.83
2022-09-26T20:39:26.876Z,14.10
2022-09-26T20:41:57.157Z,8.25
2022-09-26T20:44:29.921Z,11.65
2022-09-26T20:47:01.692Z,8.67
2022-09-26T20:49:34.172Z,7.90
2022-09-26T20:52:06.027Z,11.07
2022-09-26T20:54:36.205Z,5.47
2022-09-26T20:57:05.912Z,8.77
2022-09-26T20:59:36.310Z,6.23
2022-09-26T21:02:19.212Z,6.27
2022-09-26T21:04:49.111Z,11.57
2022-09-26T21:07:19.000Z,10.47
2022-09-26T21:09:49.745Z,7.57
2022-09-26T21:12:19.872Z,6.50
2022-09-26T21:14:49.604Z,7.87
2022-09-26T21:17:31.348Z,6.77
2022-09-26T21:20:01.212Z,8.23
2022-09-26T21:22:37.149Z,9.10
2022-09-26T21:25:09.959Z,5.95
2022-09-26T21:27:39.398Z,11.15
2022-09-26T21:30:16.451Z,5.20
2022-09-26T21:32:49.442Z,8.05
2022-09-26T21:35:20.820Z,6.57
2022-09-26T21:37:52.929Z,8.73
2022-09-26T21:40:26.108Z,5.75
2022-09-26T21:42:58.995Z,5.57
2022-09-26T21:45:28.755Z,6.43
2022-09-26T21:47:58.925Z,5.85
2022-09-26T21:50:30.138Z,8.10
2022-09-26T21:53:08.831Z,8.07
2022-09-26T21:55:41.540Z,6.30
2022-09-26T21:58:15.984Z,3.70
2022-09-26T22:00:45.712Z,3.33
2022-09-26T22:03:15.492Z,3.90
2022-09-26T22:05:45.521Z,8.40
2022-09-26T22:08:15.520Z,6.83
2022-09-26T22:10:45.244Z,4.17
2022-09-26T22:13:14.962Z,7.03
2022-09-26T22:15:44.699Z,9.93
2022-09-26T22:18:14.293Z,4.95
2022-09-26T22:20:44.304Z,5.87
2022-09-26T22:23:14.047Z,6.77
2022-09-26T22:25:47.082Z,5.47
2022-09-26T22:28:16.889Z,5.27
2022-09-26T22:30:46.703Z,8.60
2022-09-26T22:33:18.589Z,6.27
2022-09-26T22:35:50.340Z,10.17
2022-09-26T22:38:20.086Z,9.95
2022-09-26T22:40:59.992Z,7.80
2022-09-26T22:43:30.150Z,9.83
2022-09-26T22:46:05.651Z,10.33
2022-09-26T22:48:37.357Z,6.30
2022-09-26T22:51:08.031Z,12.50
2022-09-26T22:53:39.996Z,10.08
2022-09-26T22:56:13.791Z,9.37
2022-09-26T22:58:46.595Z,8.27
2022-09-26T23:01:23.688Z,7.17
2022-09-26T23:03:53.853Z,12.60
2022-09-26T23:06:24.356Z,5.30
2022-09-26T23:08:54.574Z,8.40
2022-09-26T23:11:24.847Z,7.40
2022-09-26T23:13:54.804Z,11.63
2022-09-26T23:16:27.206Z,11.93
2022-09-26T23:18:58.150Z,4.87
2022-09-26T23:21:29.007Z,5.47
2022-09-26T23:23:58.878Z,7.00
2022-09-26T23:26:31.609Z,12.33
2022-09-26T23:29:01.847Z,3.83
2022-09-26T23:31:31.585Z,5.13
2022-09-26T23:34:01.396Z,8.67
2022-09-26T23:36:31.206Z,7.73
2022-09-26T23:39:01.019Z,7.37
2022-09-26T23:41:31.044Z,6.75
2022-09-26T23:44:00.838Z,4.80
2022-09-26T23:46:30.949Z,8.18
2022-09-26T23:49:00.671Z,7.37
2022-09-26T23:51:30.412Z,6.40
2022-09-26T23:54:00.153Z,4.50
2022-09-26T23:56:29.603Z,6.13
2022-09-26T23:58:59.719Z,7.28
